Time;durP1;ratioP1;P1;durP2;ratioP2;P2;SDS_P1;SDS_P2;PMS_P1;PMS_P2;Temp;Humidity;BMP_temperature;BMP_pressure;BME280_temperature;BME280_humidity;BME280_pressure;Samples;Min_cycle;Max_cycle;Signal;HPM_P1;HPM_P2
2022/02/16 00:01:19;;;;;;;8.38;4.05;;;3.60;99.90;;;;;;5058279;28;20056;-66
2022/02/16 00:03:47;;;;;;;10.35;4.20;;;3.40;99.90;;;;;;5071912;28;20503;-66
2022/02/16 00:06:14;;;;;;;7.40;3.60;;;3.40;99.90;;;;;;5072342;28;20542;-66
2022/02/16 00:08:43;;;;;;;7.35;4.00;;;3.30;99.90;;;;;;5072171;28;20070;-66
2022/02/16 00:11:13;;;;;;;8.73;4.43;;;3.30;99.90;;;;;;5071518;28;20404;-66
2022/02/16 00:13:41;;;;;;;9.23;4.13;;;3.20;99.90;;;;;;5072288;28;20055;-66
2022/02/16 00:16:08;;;;;;;9.73;3.90;;;3.10;99.90;;;;;;5071835;28;20044;-66
2022/02/16 00:18:38;;;;;;;5.88;3.28;;;3.20;99.90;;;;;;5072151;28;20040;-66
2022/02/16 00:21:06;;;;;;;7.03;3.20;;;3.30;99.90;;;;;;5071516;28;20407;-66
2022/02/16 00:23:34;;;;;;;8.02;3.38;;;3.20;99.90;;;;;;5060960;28;20041;-65
2022/02/16 00:26:05;;;;;;;6.90;3.40;;;3.30;99.90;;;;;;5051842;28;20040;-66
2022/02/16 00:28:32;;;;;;;8.13;3.70;;;3.30;99.90;;;;;;5070756;28;20491;-66
2022/02/16 00:31:00;;;;;;;8.02;4.03;;;3.20;99.90;;;;;;5070525;28;20052;-66
2022/02/16 00:33:28;;;;;;;6.75;3.38;;;3.20;99.90;;;;;;5071266;28;20060;-66
2022/02/16 00:35:56;;;;;;;10.32;3.58;;;3.30;99.90;;;;;;5052646;28;20052;-66
2022/02/16 00:38:24;;;;;;;5.53;3.40;;;3.20;99.90;;;;;;5071175;28;20055;-65
2022/02/16 00:40:53;;;;;;;6.25;3.33;;;3.20;99.90;;;;;;5069625;28;20082;-66
2022/02/16 00:43:24;;;;;;;7.28;3.35;;;3.30;99.90;;;;;;5049657;28;20106;-66
2022/02/16 00:45:51;;;;;;;6.93;3.88;;;3.30;99.90;;;;;;5070951;28;20036;-66
2022/02/16 00:48:18;;;;;;;7.78;3.88;;;3.20;99.90;;;;;;5070061;28;20040;-66
2022/02/16 00:50:46;;;;;;;9.57;3.40;;;3.20;99.90;;;;;;5071207;28;20046;-66
2022/02/16 00:53:14;;;;;;;6.32;3.47;;;3.10;99.90;;;;;;5045878;28;20091;-65
2022/02/16 00:55:41;;;;;;;6.28;3.42;;;3.10;99.90;;;;;;5053026;28;20053;-66
2022/02/16 00:58:11;;;;;;;6.60;3.20;;;3.10;99.90;;;;;;5051383;28;20181;-65
2022/02/16 01:00:39;;;;;;;8.77;4.20;;;3.10;99.90;;;;;;5066108;28;20059;-66
2022/02/16 01:03:08;;;;;;;6.45;3.42;;;3.10;99.90;;;;;;5046420;28;20041;-65
2022/02/16 01:05:36;;;;;;;6.63;3.53;;;3.10;99.90;;;;;;5061206;28;20037;-66
2022/02/16 01:08:08;;;;;;;8.32;3.67;;;3.20;99.90;;;;;;5052689;28;20064;-65
2022/02/16 01:10:36;;;;;;;6.60;3.33;;;3.20;99.90;;;;;;5066913;28;20115;-65
2022/02/16 01:13:04;;;;;;;5.38;3.00;;;3.20;99.90;;;;;;5070047;28;20120;-66
2022/02/16 01:15:35;;;;;;;5.93;3.65;;;3.30;99.90;;;;;;5053226;28;20075;-65
2022/02/16 01:18:02;;;;;;;5.97;3.30;;;3.30;99.90;;;;;;5052435;28;20156;-66
2022/02/16 01:20:45;;;;;;;7.07;3.35;;;3.30;99.90;;;;;;5052907;28;20041;-65
2022/02/16 01:23:13;;;;;;;6.32;3.53;;;3.20;99.90;;;;;;5040025;28;20052;-66
2022/02/16 01:25:43;;;;;;;6.72;3.40;;;3.30;99.90;;;;;;5070443;28;20040;-67
2022/02/16 01:28:31;;;;;;;5.70;2.97;;;3.40;99.90;;;;;;5068237;28;20465;-67
2022/02/16 01:30:59;;;;;;;6.68;3.10;;;3.30;99.90;;;;;;5045798;28;20037;-67
2022/02/16 01:33:33;;;;;;;5.45;3.25;;;3.40;99.90;;;;;;5051677;28;20094;-68
2022/02/16 01:36:00;;;;;;;4.65;2.67;;;3.40;99.90;;;;;;5052554;28;20127;-67
2022/02/16 01:38:28;;;;;;;4.95;2.80;;;3.40;99.90;;;;;;5052338;28;20120;-65
2022/02/16 01:41:22;;;;;;;7.13;3.33;;;3.50;99.90;;;;;;5065515;28;20053;-68
2022/02/16 01:43:59;;;;;;;7.53;2.80;;;3.50;99.90;;;;;;5046563;28;20048;-67
2022/02/16 01:46:27;;;;;;;5.80;3.17;;;3.50;99.90;;;;;;5051130;28;20475;-67
2022/02/16 01:48:59;;;;;;;6.50;2.53;;;3.50;99.90;;;;;;5050598;28;20067;-67
2022/02/16 01:51:31;;;;;;;7.00;2.90;;;3.50;99.90;;;;;;5036201;28;20075;-67
2022/02/16 01:53:58;;;;;;;5.70;3.30;;;3.60;99.90;;;;;;5068335;28;20574;-67
2022/02/16 01:56:27;;;;;;;5.28;2.80;;;3.60;99.90;;;;;;5031761;28;20049;-66
2022/02/16 01:58:54;;;;;;;5.55;2.85;;;3.60;99.90;;;;;;5028897;28;20062;-67
2022/02/16 02:01:40;;;;;;;4.70;2.63;;;3.70;99.90;;;;;;5050588;28;20052;-67
2022/02/16 02:04:11;;;;;;;5.15;2.85;;;3.70;99.90;;;;;;5048581;28;20074;-68
2022/02/16 02:06:38;;;;;;;5.47;2.97;;;3.60;99.90;;;;;;5050010;28;20533;-68
2022/02/16 02:09:11;;;;;;;4.90;2.80;;;3.60;99.90;;;;;;5051454;28;20036;-68
2022/02/16 02:11:39;;;;;;;6.97;3.00;;;3.60;99.90;;;;;;5065682;28;20494;-68
2022/02/16 02:14:11;;;;;;;6.55;2.70;;;3.60;99.90;;;;;;5051268;28;20036;-66
2022/02/16 02:16:55;;;;;;;6.55;3.03;;;3.70;99.90;;;;;;5040627;28;20049;-67
2022/02/16 02:19:23;;;;;;;7.07;3.10;;;3.70;99.90;;;;;;5032951;28;20045;-66
2022/02/16 02:21:55;;;;;;;4.45;2.58;;;3.80;99.90;;;;;;5052023;28;20056;-68
2022/02/16 02:24:24;;;;;;;7.07;3.05;;;3.80;99.90;;;;;;5046042;28;20102;-66
2022/02/16 02:26:52;;;;;;;8.15;2.88;;;3.80;99.90;;;;;;5051319;28;20568;-67
2022/02/16 02:29:19;;;;;;;6.82;3.20;;;3.80;99.90;;;;;;5068551;28;20226;-65
2022/02/16 02:32:04;;;;;;;6.13;2.88;;;3.80;99.90;;;;;;5050535;28;20040;-67
2022/02/16 02:34:32;;;;;;;5.35;3.05;;;3.90;99.90;;;;;;5049382;28;20048;-67
2022/02/16 02:36:59;;;;;;;6.13;3.20;;;3.90;99.90;;;;;;5050785;28;20055;-67
2022/02/16 02:39:28;;;;;;;6.85;2.95;;;4.00;99.90;;;;;;5051197;28;20120;-68
2022/02/16 02:41:55;;;;;;;7.38;3.50;;;4.00;99.90;;;;;;5046089;28;20100;-67
2022/02/16 02:44:23;;;;;;;7.05;3.25;;;4.00;99.90;;;;;;5042016;28;20064;-67
2022/02/16 02:46:51;;;;;;;8.15;3.50;;;4.10;99.90;;;;;;5036452;28;20040;-68
2022/02/16 02:49:21;;;;;;;6.05;2.78;;;4.10;99.90;;;;;;5054647;28;20121;-67
2022/02/16 02:51:52;;;;;;;7.65;3.08;;;4.20;99.90;;;;;;5053793;28;20032;-67
2022/02/16 02:54:19;;;;;;;8.70;2.53;;;4.20;99.90;;;;;;5055294;28;20555;-67
2022/02/16 02:56:47;;;;;;;10.25;3.70;;;4.20;99.90;;;;;;5072692;28;20040;-67
2022/02/16 02:59:14;;;;;;;7.43;3.03;;;4.20;99.90;;;;;;5052672;28;20108;-67
2022/02/16 03:01:44;;;;;;;10.02;2.88;;;4.30;99.90;;;;;;5044854;28;20123;-67
2022/02/16 03:04:11;;;;;;;6.30;2.75;;;4.20;99.90;;;;;;5048775;28;20083;-66
2022/02/16 03:06:39;;;;;;;6.63;3.03;;;4.30;99.90;;;;;;5046744;28;20086;-67
2022/02/16 03:09:06;;;;;;;8.40;3.17;;;4.30;99.90;;;;;;5049444;28;20036;-68
2022/02/16 03:11:33;;;;;;;5.13;2.63;;;4.20;99.90;;;;;;5040325;28;20549;-65
2022/02/16 03:14:02;;;;;;;7.63;2.92;;;4.30;99.90;;;;;;5054020;28;20110;-65
2022/02/16 03:16:34;;;;;;;7.68;3.00;;;4.30;99.90;;;;;;5054279;28;20047;-68
2022/02/16 03:19:02;;;;;;;6.18;2.83;;;4.30;99.90;;;;;;5046950;28;20049;-66
2022/02/16 03:21:30;;;;;;;5.40;3.13;;;4.30;99.90;;;;;;5065683;28;20048;-66
2022/02/16 03:23:58;;;;;;;6.47;2.65;;;4.40;99.90;;;;;;5044357;28;20048;-66
2022/02/16 03:26:26;;;;;;;8.85;2.83;;;4.50;99.90;;;;;;5054886;28;20064;-67
2022/02/16 03:28:56;;;;;;;7.68;3.25;;;4.50;99.90;;;;;;5054587;28;20123;-66
2022/02/16 03:31:26;;;;;;;6.70;2.92;;;4.50;99.90;;;;;;5039967;28;20039;-66
2022/02/16 03:34:00;;;;;;;5.97;3.03;;;4.50;99.90;;;;;;5053684;28;20040;-67
2022/02/16 03:36:28;;;;;;;7.10;2.85;;;4.50;99.90;;;;;;5053863;28;20048;-68
2022/02/16 03:38:58;;;;;;;6.68;2.67;;;4.50;99.90;;;;;;5055680;28;20124;-66
2022/02/16 03:41:29;;;;;;;7.30;2.45;;;4.50;99.90;;;;;;5049717;28;20052;-67
2022/02/16 03:43:56;;;;;;;6.32;2.50;;;4.50;99.90;;;;;;5072344;28;20536;-68
2022/02/16 03:46:27;;;;;;;5.80;2.33;;;4.50;99.90;;;;;;5036590;28;20037;-67
2022/02/16 03:48:55;;;;;;;6.05;2.65;;;4.60;99.90;;;;;;5047904;28;20120;-68
2022/02/16 03:51:24;;;;;;;9.43;2.80;;;4.50;99.90;;;;;;5054801;28;20446;-67
2022/02/16 03:53:51;;;;;;;5.75;2.65;;;4.50;99.90;;;;;;5055723;28;20037;-67
2022/02/16 03:56:19;;;;;;;4.72;2.40;;;4.50;99.90;;;;;;5055241;28;20048;-67
2022/02/16 03:58:46;;;;;;;6.13;2.63;;;4.60;99.90;;;;;;5051886;28;20586;-66
2022/02/16 04:01:14;;;;;;;6.05;2.72;;;4.70;99.90;;;;;;5064774;28;20567;-67
2022/02/16 04:03:42;;;;;;;5.63;2.40;;;4.70;99.90;;;;;;5060051;28;20059;-66
2022/02/16 04:06:10;;;;;;;6.63;2.85;;;4.80;99.90;;;;;;5084682;28;20078;-66
2022/02/16 04:08:37;;;;;;;4.93;2.40;;;4.80;99.90;;;;;;5043904;28;20077;-66
2022/02/16 04:11:05;;;;;;;10.50;3.10;;;4.80;99.90;;;;;;5043919;28;20475;-67
2022/02/16 04:13:32;;;;;;;8.32;2.67;;;4.70;99.90;;;;;;5053809;28;20658;-67
2022/02/16 04:16:00;;;;;;;8.75;3.15;;;4.70;99.90;;;;;;5053944;28;20522;-68
2022/02/16 04:18:29;;;;;;;6.22;2.75;;;4.60;99.90;;;;;;5054741;28;20122;-67
2022/02/16 04:20:56;;;;;;;7.20;3.22;;;4.70;99.90;;;;;;5052994;28;20052;-67
2022/02/16 04:23:34;;;;;;;6.88;3.10;;;4.70;99.90;;;;;;5052587;28;20499;-67
2022/02/16 04:26:01;;;;;;;6.80;2.90;;;4.60;99.90;;;;;;5072735;28;20550;-67
2022/02/16 04:28:29;;;;;;;6.35;2.85;;;4.70;99.90;;;;;;5035962;28;20061;-68
2022/02/16 04:30:56;;;;;;;7.60;2.60;;;4.70;99.90;;;;;;5070303;28;20047;-67
2022/02/16 04:33:28;;;;;;;;;;;4.60;99.90;;;;;;5053459;28;20168;-68
2022/02/16 04:35:56;;;;;;;7.10;3.25;;;4.70;99.90;;;;;;5053047;28;20302;-68
2022/02/16 04:38:24;;;;;;;8.85;2.97;;;4.70;99.90;;;;;;5054406;28;20504;-66
2022/02/16 04:40:51;;;;;;;9.35;3.22;;;4.70;99.90;;;;;;5048379;28;20390;-67
2022/02/16 04:43:19;;;;;;;9.13;3.53;;;4.80;99.90;;;;;;5044002;28;20076;-66
2022/02/16 04:45:46;;;;;;;7.85;2.67;;;4.70;99.90;;;;;;5062388;28;20045;-68
2022/02/16 04:48:16;;;;;;;6.95;3.42;;;4.70;99.90;;;;;;5052788;28;20033;-65
2022/02/16 04:50:44;;;;;;;5.45;2.35;;;4.70;99.90;;;;;;5052553;28;20124;-66
2022/02/16 04:53:11;;;;;;;5.95;2.67;;;4.60;99.90;;;;;;5051340;28;20037;-67
2022/02/16 04:55:39;;;;;;;5.45;2.60;;;4.70;99.90;;;;;;5047778;28;20044;-68
2022/02/16 04:58:12;;;;;;;7.32;2.83;;;4.60;99.90;;;;;;5051470;28;20127;-67
2022/02/16 05:00:39;;;;;;;6.55;2.63;;;4.60;99.90;;;;;;5049240;28;20071;-68
2022/02/16 05:03:28;;;;;;;5.55;2.60;;;4.60;99.90;;;;;;5059956;28;20059;-67
2022/02/16 05:05:56;;;;;;;6.03;2.60;;;4.60;99.90;;;;;;5049172;28;20236;-67
2022/02/16 05:08:25;;;;;;;5.47;2.65;;;4.60;99.90;;;;;;5056282;28;20037;-67
2022/02/16 05:10:53;;;;;;;6.63;2.40;;;4.70;99.90;;;;;;5025675;28;20049;-67
2022/02/16 05:13:29;;;;;;;5.80;2.70;;;4.70;99.90;;;;;;5051959;28;20048;-69
2022/02/16 05:15:57;;;;;;;5.95;3.10;;;4.70;99.90;;;;;;5048093;28;20072;-69
2022/02/16 05:18:25;;;;;;;7.38;3.05;;;4.70;99.90;;;;;;5048566;28;20558;-67
2022/02/16 05:20:55;;;;;;;8.32;3.42;;;4.60;99.90;;;;;;5047774;28;20048;-66
2022/02/16 05:23:22;;;;;;;6.60;3.05;;;4.60;99.90;;;;;;5049995;28;20102;-66
2022/02/16 05:25:59;;;;;;;9.70;3.30;;;4.70;99.90;;;;;;5058783;28;20041;-68
2022/02/16 05:28:27;;;;;;;7.93;3.08;;;4.60;99.90;;;;;;5048552;28;20041;-67
2022/02/16 05:30:55;;;;;;;8.45;3.15;;;4.60;99.90;;;;;;5047479;28;20041;-67
2022/02/16 05:33:22;;;;;;;8.77;3.67;;;4.60;99.90;;;;;;5052296;28;20044;-67
2022/02/16 05:35:50;;;;;;;10.35;2.92;;;4.60;99.90;;;;;;5064630;28;20044;-68
2022/02/16 05:38:19;;;;;;;8.25;3.00;;;4.70;99.90;;;;;;5048664;28;20154;-69
2022/02/16 05:40:48;;;;;;;5.78;2.80;;;4.60;99.90;;;;;;5034010;28;20522;-67
2022/02/16 05:43:17;;;;;;;6.70;3.08;;;4.60;99.90;;;;;;5051810;28;20092;-68
2022/02/16 05:45:46;;;;;;;5.97;2.80;;;4.60;99.90;;;;;;5051243;28;20040;-68
2022/02/16 05:48:20;;;;;;;5.53;2.78;;;4.60;99.90;;;;;;5049101;28;20041;-67
2022/02/16 05:50:52;;;;;;;4.78;2.40;;;4.60;99.90;;;;;;5038956;28;20040;-69
2022/02/16 05:53:20;;;;;;;6.20;2.38;;;4.60;99.90;;;;;;5066441;28;20043;-68
2022/02/16 05:55:47;;;;;;;7.38;2.53;;;4.60;99.90;;;;;;5049442;28;20139;-67
2022/02/16 05:58:15;;;;;;;6.25;2.55;;;4.60;99.90;;;;;;5058437;28;20080;-66
2022/02/16 06:00:43;;;;;;;7.15;2.78;;;4.50;99.90;;;;;;5066383;28;20116;-69
2022/02/16 06:03:25;;;;;;;5.07;2.13;;;4.50;99.90;;;;;;5042927;28;20099;-68
2022/02/16 06:05:52;;;;;;;7.40;2.75;;;4.50;99.90;;;;;;5055839;28;20423;-68
2022/02/16 06:08:20;;;;;;;3.83;2.03;;;4.50;99.90;;;;;;5051371;28;20495;-67
2022/02/16 06:10:48;;;;;;;7.95;2.97;;;4.50;99.90;;;;;;5044733;28;20041;-68
2022/02/16 06:13:16;;;;;;;7.20;3.00;;;4.50;99.90;;;;;;5052424;28;20527;-68
2022/02/16 06:15:44;;;;;;;7.00;2.35;;;4.50;99.90;;;;;;5041462;28;20036;-67
2022/02/16 06:18:11;;;;;;;8.35;2.67;;;4.50;99.90;;;;;;5061260;28;20066;-68
2022/02/16 06:20:38;;;;;;;6.43;2.50;;;4.60;99.90;;;;;;5051132;28;20036;-68
2022/02/16 06:23:08;;;;;;;6.20;2.45;;;4.50;99.90;;;;;;5051406;28;20044;-68
2022/02/16 06:25:36;;;;;;;5.38;2.40;;;4.40;99.90;;;;;;5051035;28;20117;-67
2022/02/16 06:28:03;;;;;;;7.63;2.45;;;4.40;99.90;;;;;;5050599;28;20071;-67
2022/02/16 06:30:31;;;;;;;7.28;2.97;;;4.40;99.90;;;;;;5047766;28;20336;-68
2022/02/16 06:33:04;;;;;;;9.23;3.08;;;4.40;99.90;;;;;;5049112;28;20048;-69
2022/02/16 06:35:32;;;;;;;5.63;2.13;;;4.40;99.90;;;;;;5051029;28;20032;-68
2022/02/16 06:37:59;;;;;;;6.18;2.95;;;4.40;99.90;;;;;;5078552;28;20500;-68
2022/02/16 06:40:29;;;;;;;5.68;2.10;;;4.40;99.90;;;;;;5051891;28;20048;-69
2022/02/16 06:42:59;;;;;;;6.38;2.63;;;4.40;99.90;;;;;;5044917;28;20028;-67
2022/02/16 06:45:28;;;;;;;6.70;2.20;;;4.40;99.90;;;;;;5051381;28;20044;-69
2022/02/16 06:47:58;;;;;;;7.70;2.55;;;4.50;99.90;;;;;;5047357;28;20037;-69
2022/02/16 06:50:26;;;;;;;7.03;2.10;;;4.50;99.90;;;;;;5047949;28;20037;-69
2022/02/16 06:52:58;;;;;;;8.82;2.60;;;4.50;99.90;;;;;;5040105;28;20060;-68
2022/02/16 06:55:25;;;;;;;5.32;2.33;;;4.50;99.90;;;;;;5047773;28;20107;-67
2022/02/16 06:57:57;;;;;;;6.13;2.00;;;4.50;99.90;;;;;;5047788;28;20565;-67
2022/02/16 07:00:25;;;;;;;8.10;2.55;;;4.60;99.90;;;;;;5070028;28;20112;-66
2022/02/16 07:02:53;;;;;;;7.93;2.53;;;4.70;99.90;;;;;;5050923;28;20396;-68
2022/02/16 07:05:37;;;;;;;4.55;2.03;;;4.80;99.90;;;;;;5051024;28;20087;-69
2022/02/16 07:08:10;;;;;;;8.48;2.42;;;4.90;99.90;;;;;;5049879;28;20037;-68
2022/02/16 07:10:37;;;;;;;6.00;2.22;;;5.00;99.90;;;;;;5050714;28;20060;-68
2022/02/16 07:13:04;;;;;;;5.68;1.92;;;4.90;99.90;;;;;;5062853;28;20056;-67
2022/02/16 07:15:32;;;;;;;5.68;2.08;;;4.90;99.90;;;;;;5034872;28;20512;-68
2022/02/16 07:18:01;;;;;;;7.60;2.63;;;4.90;99.90;;;;;;5063414;28;20036;-66
2022/02/16 07:20:54;;;;;;;6.40;2.00;;;5.00;99.90;;;;;;5058504;28;20465;-67
2022/02/16 07:23:22;;;;;;;4.70;2.08;;;4.90;99.90;;;;;;5067685;28;20279;-68
2022/02/16 07:25:51;;;;;;;6.45;1.83;;;4.90;99.90;;;;;;5026747;28;20500;-68
2022/02/16 07:28:26;;;;;;;5.80;2.20;;;5.00;99.90;;;;;;5051382;28;20037;-68
2022/02/16 07:30:56;;;;;;;7.38;1.92;;;5.10;99.90;;;;;;5042329;28;20563;-69
2022/02/16 07:33:26;;;;;;;5.22;1.67;;;5.10;99.90;;;;;;5040060;28;20408;-69
2022/02/16 07:35:54;;;;;;;4.03;1.90;;;5.10;99.90;;;;;;5047716;28;20041;-67
2022/02/16 07:38:22;;;;;;;6.85;2.03;;;5.10;99.90;;;;;;5040830;28;20052;-68
2022/02/16 07:40:50;;;;;;;3.75;1.98;;;5.10;99.90;;;;;;5043649;28;20525;-69
2022/02/16 07:43:21;;;;;;;8.82;2.30;;;5.10;99.90;;;;;;5051183;28;20049;-68
2022/02/16 07:46:14;;;;;;;8.50;1.92;;;5.30;99.90;;;;;;5055875;28;20048;-69
2022/02/16 07:48:42;;;;;;;3.83;1.90;;;5.30;99.90;;;;;;5062086;28;20482;-69
2022/02/16 07:51:23;;;;;;;4.38;1.90;;;5.20;99.90;;;;;;5050433;28;20133;-68
2022/02/16 07:54:17;;;;;;;4.30;1.70;;;5.30;99.90;;;;;;5055257;28;20444;-69
2022/02/16 07:56:50;;;;;;;5.82;2.08;;;5.40;99.90;;;;;;5062674;28;20055;-69
2022/02/16 07:59:18;;;;;;;5.03;2.15;;;5.30;99.90;;;;;;5052662;28;20119;-67
2022/02/16 08:01:45;;;;;;;4.50;2.20;;;5.40;99.90;;;;;;5033063;28;20066;-67
2022/02/16 08:04:16;;;;;;;4.82;2.08;;;5.50;99.90;;;;;;5049215;28;20081;-68
2022/02/16 08:06:48;;;;;;;5.50;2.00;;;5.50;99.90;;;;;;5051876;28;20037;-69
2022/02/16 08:09:16;;;;;;;4.40;2.28;;;5.60;99.90;;;;;;5053088;28;20403;-69
2022/02/16 08:11:45;;;;;;;4.55;2.15;;;5.60;99.90;;;;;;5049213;28;20052;-69
2022/02/16 08:14:14;;;;;;;4.32;1.80;;;5.60;99.90;;;;;;5053280;28;20040;-68
2022/02/16 08:16:50;;;;;;;5.43;1.85;;;5.70;99.90;;;;;;5052956;28;20040;-70
2022/02/16 08:19:18;;;;;;;4.25;1.85;;;5.70;99.90;;;;;;5053196;28;20063;-68
2022/02/16 08:21:46;;;;;;;4.43;2.38;;;5.80;99.90;;;;;;5027120;28;20064;-68
2022/02/16 08:24:14;;;;;;;4.85;1.92;;;5.80;99.90;;;;;;5049920;28;20075;-68
2022/02/16 08:26:44;;;;;;;3.60;1.63;;;5.90;99.90;;;;;;5051255;28;20044;-69
2022/02/16 08:29:15;;;;;;;4.90;1.70;;;6.00;99.90;;;;;;5052816;28;20503;-68
2022/02/16 08:31:46;;;;;;;3.75;1.60;;;6.00;99.90;;;;;;5053399;28;20403;-69
2022/02/16 08:34:18;;;;;;;5.60;1.75;;;6.10;99.90;;;;;;5049531;28;20140;-68
2022/02/16 08:36:58;;;;;;;4.47;1.60;;;6.20;99.90;;;;;;5053256;28;20056;-68
2022/02/16 08:39:27;;;;;;;6.25;1.50;;;6.30;99.90;;;;;;5050875;28;20296;-69
2022/02/16 08:41:54;;;;;;;3.55;1.58;;;6.30;99.90;;;;;;5051226;28;20052;-67
2022/02/16 08:44:22;;;;;;;5.95;1.80;;;6.30;99.90;;;;;;5051780;28;20450;-67
2022/02/16 08:46:51;;;;;;;5.72;1.83;;;6.20;99.90;;;;;;5051153;28;20044;-67
2022/02/16 08:49:19;;;;;;;4.65;1.80;;;6.40;99.90;;;;;;5068081;28;20037;-68
2022/02/16 08:51:46;;;;;;;3.67;1.60;;;6.40;99.90;;;;;;5047510;28;20114;-68
2022/02/16 08:54:13;;;;;;;3.55;1.83;;;6.50;99.90;;;;;;5066819;28;20126;-68
2022/02/16 08:56:44;;;;;;;3.25;1.50;;;6.50;99.90;;;;;;5038612;28;20122;-68
2022/02/16 08:59:12;;;;;;;4.40;1.83;;;6.60;99.90;;;;;;5041936;28;20049;-70
2022/02/16 09:01:43;;;;;;;4.32;1.60;;;6.70;99.90;;;;;;5068934;28;20041;-69
2022/02/16 09:04:10;;;;;;;5.10;2.03;;;6.80;99.90;;;;;;5070248;28;20499;-68
2022/02/16 09:06:37;;;;;;;3.67;1.50;;;6.80;99.90;;;;;;5051678;28;20094;-69
2022/02/16 09:09:05;;;;;;;4.00;1.80;;;6.90;99.90;;;;;;5069523;28;20079;-67
2022/02/16 09:11:32;;;;;;;2.50;1.27;;;6.80;99.90;;;;;;5046575;28;20078;-68
2022/02/16 09:13:59;;;;;;;2.83;1.38;;;6.80;99.90;;;;;;5064927;28;20094;-69
2022/02/16 09:16:27;;;;;;;4.13;1.60;;;6.80;99.90;;;;;;5050671;28;20118;-68
2022/02/16 09:18:54;;;;;;;2.55;1.40;;;6.90;99.90;;;;;;5050301;28;20040;-67
2022/02/16 09:21:22;;;;;;;4.15;1.35;;;6.90;99.90;;;;;;5068456;28;20048;-69
2022/02/16 09:23:49;;;;;;;2.95;1.25;;;7.00;99.90;;;;;;5085524;28;20117;-68
2022/02/16 09:26:17;;;;;;;4.43;1.48;;;7.00;99.90;;;;;;5069583;28;20090;-70
2022/02/16 09:28:44;;;;;;;4.60;1.42;;;7.00;99.90;;;;;;5070288;28;20495;-68
2022/02/16 09:31:12;;;;;;;3.00;1.40;;;7.00;99.90;;;;;;5059771;28;20037;-68
2022/02/16 09:33:39;;;;;;;3.92;1.40;;;7.00;99.90;;;;;;5070230;28;20132;-67
2022/02/16 09:36:07;;;;;;;3.90;1.20;;;7.00;99.90;;;;;;5069977;28;20095;-67
2022/02/16 09:38:34;;;;;;;5.80;1.45;;;7.10;99.90;;;;;;5069983;28;20040;-67
2022/02/16 09:41:06;;;;;;;3.33;1.40;;;7.10;99.90;;;;;;5061911;28;20051;-69
2022/02/16 09:43:35;;;;;;;3.58;1.40;;;7.10;99.90;;;;;;5069399;28;20500;-69
2022/02/16 09:46:03;;;;;;;3.95;1.45;;;7.10;99.90;;;;;;5068337;28;20143;-69
2022/02/16 09:48:33;;;;;;;5.25;1.50;;;7.20;99.90;;;;;;5050437;28;20090;-68
2022/02/16 09:51:00;;;;;;;3.55;1.83;;;7.20;99.90;;;;;;5034968;28;20052;-67
2022/02/16 09:53:31;;;;;;;3.53;1.33;;;7.20;99.90;;;;;;5035796;28;20049;-69
2022/02/16 09:56:00;;;;;;;4.20;1.30;;;7.30;99.90;;;;;;5069350;28;20051;-67
2022/02/16 09:58:29;;;;;;;3.08;1.30;;;7.20;99.90;;;;;;5050871;28;20056;-68
2022/02/16 10:01:07;;;;;;;6.57;1.52;;;7.20;99.90;;;;;;5065603;28;20062;-68
2022/02/16 10:03:35;;;;;;;3.17;1.38;;;7.20;99.90;;;;;;5061164;28;20052;-68
2022/02/16 10:06:28;;;;;;;4.95;1.92;;;7.40;99.90;;;;;;5069578;28;20128;-67
2022/02/16 10:08:55;;;;;;;4.63;1.67;;;7.40;99.90;;;;;;5037923;28;20063;-67
2022/02/16 10:11:22;;;;;;;6.35;1.90;;;7.50;99.90;;;;;;5063682;28;20452;-68
2022/02/16 10:13:53;;;;;;;3.92;1.73;;;7.40;99.90;;;;;;5065993;28;20123;-67
2022/02/16 10:16:32;;;;;;;7.65;2.22;;;7.40;99.90;;;;;;5066486;28;20037;-68
2022/02/16 10:19:01;;;;;;;3.88;1.30;;;7.40;99.90;;;;;;5049816;28;20091;-68
2022/02/16 10:21:28;;;;;;;2.58;1.35;;;7.40;99.90;;;;;;5066291;28;20523;-67
2022/02/16 10:23:58;;;;;;;4.68;1.88;;;7.70;99.90;;;;;;5069480;28;20113;-69
2022/02/16 10:26:50;;;;;;;4.45;1.25;;;7.90;99.90;;;;;;5067804;28;20079;-67
2022/02/16 10:29:25;;;;;;;3.67;1.30;;;7.90;99.90;;;;;;5039624;28;20061;-68
2022/02/16 10:31:53;;;;;;;7.03;1.35;;;7.90;99.90;;;;;;5044419;28;20491;-67
2022/02/16 10:34:21;;;;;;;5.13;1.73;;;7.80;99.90;;;;;;5061067;28;20040;-68
2022/02/16 10:36:49;;;;;;;6.65;1.73;;;7.80;99.90;;;;;;5069486;28;20052;-70
2022/02/16 10:39:20;;;;;;;6.18;2.22;;;7.80;99.90;;;;;;5069157;28;20422;-69
2022/02/16 10:41:58;;;;;;;4.22;1.80;;;7.80;99.90;;;;;;5054176;28;20045;-70
2022/02/16 10:44:30;;;;;;;3.22;1.40;;;7.90;99.90;;;;;;5057886;28;20060;-69
2022/02/16 10:47:07;;;;;;;3.03;1.20;;;7.80;99.90;;;;;;5050710;28;20052;-70
2022/02/16 10:49:36;;;;;;;4.35;1.10;;;7.80;99.90;;;;;;5061899;28;20545;-69
2022/02/16 10:52:14;;;;;;;3.92;1.38;;;7.80;99.90;;;;;;5068467;28;20053;-69
2022/02/16 10:54:58;;;;;;;3.20;1.45;;;7.80;99.90;;;;;;5060241;28;20052;-68
2022/02/16 10:57:26;;;;;;;4.28;1.77;;;8.00;99.90;;;;;;5056464;28;20199;-68
2022/02/16 10:59:57;;;;;;;4.35;1.60;;;8.10;99.90;;;;;;5046088;28;20044;-68
2022/02/16 11:02:25;;;;;;;5.07;1.60;;;8.20;99.90;;;;;;5060622;28;20049;-68
2022/02/16 11:04:53;;;;;;;5.85;2.15;;;8.20;99.90;;;;;;5066482;28;20519;-68
2022/02/16 11:07:23;;;;;;;6.40;1.67;;;8.30;99.90;;;;;;5059669;28;20052;-68
2022/02/16 11:09:55;;;;;;;4.32;1.88;;;8.30;99.90;;;;;;5067065;28;20033;-68
2022/02/16 11:12:22;;;;;;;;;;;8.20;99.90;;;;;;5052442;28;20495;-69
2022/02/16 11:14:50;;;;;;;6.75;1.55;;;8.30;99.90;;;;;;5070124;28;19920;-68
2022/02/16 11:17:26;;;;;;;3.45;1.40;;;8.30;99.90;;;;;;5072512;28;20052;-69
2022/02/16 11:20:25;;;;;;;3.85;1.42;;;8.30;99.90;;;;;;5072709;28;20051;-69
2022/02/16 11:23:00;;;;;;;4.40;1.40;;;8.20;99.90;;;;;;5073676;28;20463;-69
2022/02/16 11:25:36;;;;;;;4.43;2.00;;;8.30;99.90;;;;;;5063568;28;20159;-69
2022/02/16 11:28:11;;;;;;;4.18;2.20;;;8.20;99.90;;;;;;5052108;28;20442;-69
2022/02/16 11:30:46;;;;;;;3.15;1.67;;;8.30;99.90;;;;;;5069609;28;20041;-68
2022/02/16 11:33:19;;;;;;;4.97;1.58;;;8.30;99.90;;;;;;5072659;28;20048;-70
2022/02/16 11:35:59;;;;;;;2.70;1.33;;;8.40;99.90;;;;;;5071684;28;20513;-68
2022/02/16 11:38:46;;;;;;;2.95;1.20;;;8.60;99.90;;;;;;5073373;28;20032;-69
2022/02/16 11:41:26;;;;;;;3.33;1.55;;;8.70;99.90;;;;;;5072017;28;20139;-69
2022/02/16 11:44:01;;;;;;;2.58;1.30;;;8.70;99.90;;;;;;5061673;28;20097;-68
2022/02/16 11:46:44;;;;;;;2.22;1.15;;;8.60;99.90;;;;;;5053323;28;20598;-69
2022/02/16 11:49:43;;;;;;;2.33;1.08;;;8.50;99.90;;;;;;5065473;28;20052;-68
2022/02/16 11:52:30;;;;;;;2.22;1.10;;;8.50;99.90;;;;;;5054585;28;20047;-67
2022/02/16 11:54:57;;;;;;;2.90;1.30;;;8.60;99.90;;;;;;5067828;28;20044;-68
2022/02/16 11:57:30;;;;;;;4.10;1.65;;;8.60;99.90;;;;;;5071727;28;20055;-67
2022/02/16 12:00:09;;;;;;;2.90;1.23;;;8.70;99.90;;;;;;5070244;28;20374;-67
2022/02/16 12:02:58;;;;;;;2.88;1.33;;;8.80;99.90;;;;;;5071953;28;20064;-66
2022/02/16 12:05:58;;;;;;;2.80;1.40;;;8.80;99.90;;;;;;5071992;28;20040;-66
2022/02/16 12:08:52;;;;;;;2.50;1.30;;;8.70;99.90;;;;;;5070458;28;20481;-66
2022/02/16 12:11:29;;;;;;;3.38;1.00;;;8.60;99.90;;;;;;5043425;28;20040;-67
2022/02/16 12:14:02;;;;;;;3.90;1.77;;;8.70;99.90;;;;;;5069074;28;20052;-67
2022/02/16 12:16:32;;;;;;;2.90;1.48;;;8.70;99.90;;;;;;5067315;28;20044;-67
2022/02/16 12:19:05;;;;;;;3.95;1.58;;;8.50;99.90;;;;;;5070528;28;20068;-67
2022/02/16 12:21:32;;;;;;;3.70;1.52;;;8.50;99.90;;;;;;5070812;28;20058;-67
2022/02/16 12:24:02;;;;;;;5.57;1.70;;;8.40;99.90;;;;;;5066075;28;20049;-66
2022/02/16 12:26:35;;;;;;;6.15;1.48;;;8.30;99.90;;;;;;5041011;28;20347;-67
2022/02/16 12:29:11;;;;;;;7.40;1.92;;;8.10;99.90;;;;;;5063105;28;20411;-66
2022/02/16 12:31:43;;;;;;;3.25;1.30;;;8.20;99.90;;;;;;5068889;28;20079;-67
2022/02/16 12:34:18;;;;;;;3.65;1.58;;;8.20;99.90;;;;;;5051587;28;20044;-68
2022/02/16 12:36:50;;;;;;;4.03;1.40;;;8.30;99.90;;;;;;5069659;28;20052;-70
2022/02/16 12:39:26;;;;;;;3.10;1.38;;;8.30;99.90;;;;;;5049969;28;20114;-68
2022/02/16 12:41:55;;;;;;;3.80;1.23;;;8.40;99.90;;;;;;5071034;28;20063;-67
2022/02/16 12:44:29;;;;;;;3.17;1.30;;;8.20;99.90;;;;;;5036338;28;20495;-69
2022/02/16 12:46:57;;;;;;;4.60;1.95;;;8.20;99.90;;;;;;5070996;28;20051;-68
2022/02/16 12:49:28;;;;;;;2.17;1.17;;;8.10;99.90;;;;;;5067123;28;20458;-67
2022/02/16 12:51:57;;;;;;;3.78;1.70;;;8.20;99.90;;;;;;5063124;28;20067;-68
2022/02/16 12:54:27;;;;;;;5.18;1.30;;;8.10;99.90;;;;;;5048701;28;20040;-69
2022/02/16 12:56:57;;;;;;;3.00;1.38;;;8.20;99.90;;;;;;5063446;28;20601;-68
2022/02/16 13:00:46;;;;;;;4.35;1.50;;;8.10;99.90;;;;;;5069357;28;20044;-69
2022/02/16 13:02:32;;;;;;;4.97;1.65;;;8.20;99.90;;;;;;5066542;28;20067;-69
2022/02/16 13:05:05;;;;;;;3.95;1.60;;;8.20;99.90;;;;;;5069336;28;20534;-70
2022/02/16 13:07:35;;;;;;;2.70;1.55;;;8.20;99.90;;;;;;5051492;28;20044;-70
2022/02/16 13:10:05;;;;;;;2.58;1.30;;;8.20;99.90;;;;;;5063978;28;20075;-67
2022/02/16 13:12:40;;;;;;;3.10;1.45;;;8.20;99.90;;;;;;5071036;28;20048;-67
2022/02/16 13:15:31;;;;;;;2.22;1.27;;;8.20;99.90;;;;;;5063795;28;20052;-68
2022/02/16 13:17:59;;;;;;;3.60;1.48;;;8.20;99.90;;;;;;5071072;28;20068;-69